sensor_id;sensor_type;location;lat;lon;timestamp;pressure;altitude;pressure_sealevel;temperature;humidity
7333;BME280;3707;43.618;25.342;2022-09-20T00:02:20;100093.28;;;13.86;100.00
7333;BME280;3707;43.618;25.342;2022-09-20T00:04:47;100126.34;;;14.10;100.00
7333;BME280;3707;43.618;25.342;2022-09-20T00:07:14;100142.84;;;14.10;100.00
7333;BME280;3707;43.618;25.342;2022-09-20T00:09:42;100144.56;;;14.02;100.00
7333;BME280;3707;43.618;25.342;2022-09-20T00:12:09;100116.75;;;13.92;100.00
7333;BME280;3707;43.618;25.342;2022-09-20T00:14:36;100121.97;;;13.90;100.00
7333;BME280;3707;43.618;25.342;2022-09-20T00:17:03;100132.44;;;14.10;100.00
7333;BME280;3707;43.618;25.342;2022-09-20T00:19:30;100134.19;;;14.08;100.00
7333;BME280;3707;43.618;25.342;2022-09-20T00:21:56;100135.91;;;14.03;100.00
7333;BME280;3707;43.618;25.342;2022-09-20T00:24:23;100125.47;;;13.91;100.00
7333;BME280;3707;43.618;25.342;2022-09-20T00:26:51;100128.06;;;13.99;100.00
7333;BME280;3707;43.618;25.342;2022-09-20T00:29:19;100123.72;;;13.87;100.00
7333;BME280;3707;43.618;25.342;2022-09-20T00:31:46;100093.25;;;13.62;100.00
7333;BME280;3707;43.618;25.342;2022-09-20T00:34:13;100120.16;;;13.70;100.00
7333;BME280;3707;43.618;25.342;2022-09-20T00:37:11;100121.91;;;13.74;100.00
7333;BME280;3707;43.618;25.342;2022-09-20T00:39:38;100113.25;;;13.72;100.00
7333;BME280;3707;43.618;25.342;2022-09-20T00:42:10;100111.50;;;13.78;100.00
7333;BME280;3707;43.618;25.342;2022-09-20T00:44:46;100109.78;;;13.85;100.00
7333;BME280;3707;43.618;25.342;2022-09-20T00:47:25;100105.47;;;13.90;100.00
7333;BME280;3707;43.618;25.342;2022-09-20T00:49:58;100105.44;;;13.78;100.00
7333;BME280;3707;43.618;25.342;2022-09-20T00:52:28;100073.25;;;13.58;100.00
7333;BME280;3707;43.618;25.342;2022-09-20T00:54:56;100092.41;;;13.75;100.00
7333;BME280;3707;43.618;25.342;2022-09-20T00:57:25;100049.78;;;13.44;100.00
7333;BME280;3707;43.618;25.342;2022-09-20T00:59:53;100091.53;;;13.73;100.00
7333;BME280;3707;43.618;25.342;2022-09-20T01:02:23;100091.53;;;13.73;100.00
7333;BME280;3707;43.618;25.342;2022-09-20T01:04:51;100098.47;;;13.68;100.00
7333;BME280;3707;43.618;25.342;2022-09-20T01:07:20;100099.31;;;13.64;100.00
7333;BME280;3707;43.618;25.342;2022-09-20T01:09:48;100104.53;;;13.67;100.00
7333;BME280;3707;43.618;25.342;2022-09-20T01:12:17;100097.59;;;13.72;100.00
7333;BME280;3707;43.618;25.342;2022-09-20T01:14:49;100101.06;;;13.71;100.00
7333;BME280;3707;43.618;25.342;2022-09-20T01:17:22;100099.31;;;13.61;100.00
7333;BME280;3707;43.618;25.342;2022-09-20T01:19:59;100096.69;;;13.61;100.00
7333;BME280;3707;43.618;25.342;2022-09-20T01:22:37;100102.81;;;13.66;100.00
7333;BME280;3707;43.618;25.342;2022-09-20T01:25:11;100091.47;;;13.56;100.00
7333;BME280;3707;43.618;25.342;2022-09-20T01:27:43;100088.00;;;13.51;100.00
7333;BME280;3707;43.618;25.342;2022-09-20T01:30:12;100094.91;;;13.46;100.00
7333;BME280;3707;43.618;25.342;2022-09-20T01:33:03;100084.50;;;13.43;100.00
7333;BME280;3707;43.618;25.342;2022-09-20T01:35:34;100084.50;;;13.45;100.00
7333;BME280;3707;43.618;25.342;2022-09-20T01:38:18;100081.84;;;13.35;100.00
7333;BME280;3707;43.618;25.342;2022-09-20T01:40:58;100094.91;;;13.43;100.00
7333;BME280;3707;43.618;25.342;2022-09-20T01:43:33;100088.81;;;13.33;100.00
7333;BME280;3707;43.618;25.342;2022-09-20T01:46:10;100092.28;;;13.40;100.00
7333;BME280;3707;43.618;25.342;2022-09-20T01:48:38;100094.91;;;13.43;100.00
7333;BME280;3707;43.618;25.342;2022-09-20T01:51:30;100094.00;;;13.35;100.00
7333;BME280;3707;43.618;25.342;2022-09-20T01:54:33;100080.16;;;13.44;100.00
7333;BME280;3707;43.618;25.342;2022-09-20T01:57:40;100094.03;;;13.43;100.00
7333;BME280;3707;43.618;25.342;2022-09-20T02:00:14;100105.31;;;13.40;100.00
7333;BME280;3707;43.618;25.342;2022-09-20T02:12:36;100087.06;;;13.35;100.00
7333;BME280;3707;43.618;25.342;2022-09-20T02:15:22;100098.34;;;13.34;100.00
7333;BME280;3707;43.618;25.342;2022-09-20T02:18:02;100061.78;;;13.10;100.00
7333;BME280;3707;43.618;25.342;2022-09-20T02:20:43;100092.25;;;13.23;100.00
7333;BME280;3707;43.618;25.342;2022-09-20T02:23:21;100101.75;;;13.21;100.00
7333;BME280;3707;43.618;25.342;2022-09-20T02:26:02;100092.25;;;13.23;100.00
7333;BME280;3707;43.618;25.342;2022-09-20T02:28:45;100083.41;;;13.06;100.00
7333;BME280;3707;43.618;25.342;2022-09-20T02:31:26;100101.81;;;13.29;100.00
7333;BME280;3707;43.618;25.342;2022-09-20T02:34:16;100107.88;;;13.26;100.00
7333;BME280;3707;43.618;25.342;2022-09-20T02:37:01;100117.41;;;13.26;100.00
7333;BME280;3707;43.618;25.342;2022-09-20T02:39:44;100029.56;;;12.87;100.00
7333;BME280;3707;43.618;25.342;2022-09-20T02:42:18;100072.22;;;13.13;100.00
7333;BME280;3707;43.618;25.342;2022-09-20T02:44:53;100112.22;;;13.29;100.00
7333;BME280;3707;43.618;25.342;2022-09-20T02:47:31;100095.72;;;13.25;100.00
7333;BME280;3707;43.618;25.342;2022-09-20T02:50:12;100114.81;;;13.26;100.00
7333;BME280;3707;43.618;25.342;2022-09-20T02:52:53;100117.44;;;13.30;100.00
7333;BME280;3707;43.618;25.342;2022-09-20T02:55:30;100119.97;;;13.21;100.00
7333;BME280;3707;43.618;25.342;2022-09-20T02:58:08;100112.16;;;13.20;100.00
7333;BME280;3707;43.618;25.342;2022-09-20T03:00:44;100126.88;;;13.16;100.00
7333;BME280;3707;43.618;25.342;2022-09-20T03:03:20;100119.09;;;13.18;100.00
7333;BME280;3707;43.618;25.342;2022-09-20T03:05:55;100105.97;;;13.03;100.00
7333;BME280;3707;43.618;25.342;2022-09-20T03:08:32;100117.34;;;13.20;100.00
7333;BME280;3707;43.618;25.342;2022-09-20T03:11:11;100113.94;;;13.22;100.00
7333;BME280;3707;43.618;25.342;2022-09-20T03:13:57;100117.53;;;13.59;100.00
7333;BME280;3707;43.618;25.342;2022-09-20T03:16:32;100095.69;;;13.22;100.00
7333;BME280;3707;43.618;25.342;2022-09-20T03:19:12;100103.50;;;13.25;100.00
7333;BME280;3707;43.618;25.342;2022-09-20T03:21:50;100109.59;;;13.26;100.00
7333;BME280;3707;43.618;25.342;2022-09-20T03:24:33;100123.53;;;13.34;100.00
7333;BME280;3707;43.618;25.342;2022-09-20T03:27:12;100113.97;;;13.34;100.00
7333;BME280;3707;43.618;25.342;2022-09-20T03:29:51;100119.16;;;13.31;100.00
7333;BME280;3707;43.618;25.342;2022-09-20T03:32:36;100107.03;;;13.33;100.00
7333;BME280;3707;43.618;25.342;2022-09-20T03:35:21;100104.38;;;13.21;100.00
7333;BME280;3707;43.618;25.342;2022-09-20T03:38:09;100102.66;;;13.23;100.00
7333;BME280;3707;43.618;25.342;2022-09-20T03:41:22;100119.19;;;13.33;100.00
7333;BME280;3707;43.618;25.342;2022-09-20T03:44:08;100099.16;;;13.18;100.00
7333;BME280;3707;43.618;25.342;2022-09-20T03:46:42;100094.69;;;13.01;100.00
7333;BME280;3707;43.618;25.342;2022-09-20T03:49:41;100106.94;;;13.17;100.00
7333;BME280;3707;43.618;25.342;2022-09-20T03:52:26;100124.31;;;13.21;100.00
7333;BME280;3707;43.618;25.342;2022-09-20T03:58:19;100125.06;;;13.03;100.00
7333;BME280;3707;43.618;25.342;2022-09-20T04:01:03;100129.34;;;12.95;100.00
7333;BME280;3707;43.618;25.342;2022-09-20T04:03:40;100111.13;;;12.90;100.00
7333;BME280;3707;43.618;25.342;2022-09-20T04:06:42;100131.13;;;12.98;100.00
7333;BME280;3707;43.618;25.342;2022-09-20T04:09:37;100139.72;;;12.92;100.00
7333;BME280;3707;43.618;25.342;2022-09-20T04:12:13;100140.66;;;13.00;100.00
7333;BME280;3707;43.618;25.342;2022-09-20T04:14:51;100139.78;;;13.00;100.00
7333;BME280;3707;43.618;25.342;2022-09-20T04:17:26;100143.28;;;13.03;100.00
7333;BME280;3707;43.618;25.342;2022-09-20T04:20:01;100145.09;;;13.12;100.00
7333;BME280;3707;43.618;25.342;2022-09-20T04:22:29;100145.81;;;12.91;100.00
7333;BME280;3707;43.618;25.342;2022-09-20T04:25:02;100156.31;;;13.06;100.00
7333;BME280;3707;43.618;25.342;2022-09-20T04:27:34;100152.91;;;13.10;100.00
7333;BME280;3707;43.618;25.342;2022-09-20T04:30:05;100156.44;;;13.24;100.00
7333;BME280;3707;43.618;25.342;2022-09-20T04:32:41;100150.31;;;13.13;100.00
7333;BME280;3707;43.618;25.342;2022-09-20T04:35:15;100163.41;;;13.28;100.00
7333;BME280;3707;43.618;25.342;2022-09-20T04:38:08;100134.72;;;13.15;100.00
7333;BME280;3707;43.618;25.342;2022-09-20T04:40:56;100155.56;;;13.19;100.00
7333;BME280;3707;43.618;25.342;2022-09-20T04:43:52;100163.31;;;13.10;100.00
7333;BME280;3707;43.618;25.342;2022-09-20T04:46:47;100158.03;;;13.04;100.00
7333;BME280;3707;43.618;25.342;2022-09-20T04:49:37;100159.88;;;13.17;100.00
7333;BME280;3707;43.618;25.342;2022-09-20T04:52:40;100168.59;;;13.22;100.00
7333;BME280;3707;43.618;25.342;2022-09-20T04:55:37;100166.81;;;13.17;100.00
7333;BME280;3707;43.618;25.342;2022-09-20T04:58:31;100165.09;;;13.20;100.00
7333;BME280;3707;43.618;25.342;2022-09-20T05:04:35;100179.97;;;13.43;100.00
7333;BME280;3707;43.618;25.342;2022-09-20T05:13:24;100196.56;;;13.63;100.00
7333;BME280;3707;43.618;25.342;2022-09-20T05:15:58;100202.56;;;13.42;100.00
7333;BME280;3707;43.618;25.342;2022-09-20T05:21:42;100206.16;;;13.65;100.00
7333;BME280;3707;43.618;25.342;2022-09-20T05:27:21;100172.25;;;13.64;100.00
7333;BME280;3707;43.618;25.342;2022-09-20T05:30:00;100209.66;;;13.78;100.00
7333;BME280;3707;43.618;25.342;2022-09-20T05:32:34;100201.03;;;13.93;100.00
7333;BME280;3707;43.618;25.342;2022-09-20T05:35:13;100194.06;;;13.91;100.00
7333;BME280;3707;43.618;25.342;2022-09-20T05:37:47;100208.91;;;14.03;100.00
7333;BME280;3707;43.618;25.342;2022-09-20T05:40:23;100205.47;;;14.15;100.00
7333;BME280;3707;43.618;25.342;2022-09-20T05:42:54;100211.56;;;14.21;100.00
7333;BME280;3707;43.618;25.342;2022-09-20T05:45:45;100206.41;;;14.49;100.00
7333;BME280;3707;43.618;25.342;2022-09-20T05:48:14;100216.84;;;14.43;100.00
7333;BME280;3707;43.618;25.342;2022-09-20T05:50:46;100209.94;;;14.66;100.00
7333;BME280;3707;43.618;25.342;2022-09-20T05:56:21;100207.31;;;14.82;98.59
7333;BME280;3707;43.618;25.342;2022-09-20T05:59:12;100209.91;;;14.99;97.01
7333;BME280;3707;43.618;25.342;2022-09-20T06:01:56;100222.09;;;15.15;96.36
7333;BME280;3707;43.618;25.342;2022-09-20T06:04:28;100215.97;;;15.30;94.55
7333;BME280;3707;43.618;25.342;2022-09-20T06:07:05;100217.72;;;14.92;96.46
7333;BME280;3707;43.618;25.342;2022-09-20T06:09:55;100229.94;;;14.97;95.12
7333;BME280;3707;43.618;25.342;2022-09-20T06:12:32;100229.94;;;14.76;96.28
7333;BME280;3707;43.618;25.342;2022-09-20T06:15:12;100230.78;;;14.99;94.56
7333;BME280;3707;43.618;25.342;2022-09-20T06:17:48;100225.56;;;14.93;94.76
7333;BME280;3707;43.618;25.342;2022-09-20T06:20:24;100221.22;;;14.92;93.74
7333;BME280;3707;43.618;25.342;2022-09-20T06:22:55;100229.06;;;14.86;94.53
7333;BME280;3707;43.618;25.342;2022-09-20T06:25:25;100228.19;;;15.05;92.53
7333;BME280;3707;43.618;25.342;2022-09-20T06:27:59;100235.13;;;15.36;91.74
7333;BME280;3707;43.618;25.342;2022-09-20T06:30:29;100234.22;;;15.39;91.22
7333;BME280;3707;43.618;25.342;2022-09-20T06:32:59;100235.06;;;15.68;89.65
7333;BME280;3707;43.618;25.342;2022-09-20T06:35:37;100221.13;;;15.65;88.71
7333;BME280;3707;43.618;25.342;2022-09-20T06:38:21;100243.66;;;15.96;87.13
7333;BME280;3707;43.618;25.342;2022-09-20T06:41:10;100243.75;;;15.75;87.29
7333;BME280;3707;43.618;25.342;2022-09-20T06:43:53;100234.16;;;15.71;87.42
7333;BME280;3707;43.618;25.342;2022-09-20T06:46:24;100236.78;;;15.80;86.98
7333;BME280;3707;43.618;25.342;2022-09-20T06:48:53;100228.03;;;15.87;86.22
7333;BME280;3707;43.618;25.342;2022-09-20T06:51:20;100218.41;;;15.84;85.11
7333;BME280;3707;43.618;25.342;2022-09-20T06:53:47;100248.09;;;15.77;85.18
7333;BME280;3707;43.618;25.342;2022-09-20T06:56:17;100242.03;;;15.68;86.74
7333;BME280;3707;43.618;25.342;2022-09-20T06:58:45;100238.56;;;15.60;87.18
7333;BME280;3707;43.618;25.342;2022-09-20T07:01:12;100243.78;;;15.60;87.05
7333;BME280;3707;43.618;25.342;2022-09-20T07:03:39;100246.38;;;15.63;86.26
7333;BME280;3707;43.618;25.342;2022-09-20T07:06:09;100247.22;;;15.77;86.03
7333;BME280;3707;43.618;25.342;2022-09-20T07:08:36;100237.66;;;15.76;86.25
7333;BME280;3707;43.618;25.342;2022-09-20T07:11:04;100257.63;;;15.92;86.17
7333;BME280;3707;43.618;25.342;2022-09-20T07:13:31;100244.59;;;15.83;85.90
7333;BME280;3707;43.618;25.342;2022-09-20T07:16:02;100247.13;;;16.04;84.76
7333;BME280;3707;43.618;25.342;2022-09-20T07:18:29;100221.97;;;15.76;84.38
7333;BME280;3707;43.618;25.342;2022-09-20T07:20:58;100253.22;;;16.08;83.70
7333;BME280;3707;43.618;25.342;2022-09-20T07:23:27;100223.53;;;16.10;81.44
7333;BME280;3707;43.618;25.342;2022-09-20T07:25:54;100257.59;;;15.95;80.63
7333;BME280;3707;43.618;25.342;2022-09-20T07:28:26;100253.13;;;16.23;81.46
7333;BME280;3707;43.618;25.342;2022-09-20T07:30:52;100264.50;;;16.14;80.20
7333;BME280;3707;43.618;25.342;2022-09-20T07:33:19;100247.00;;;16.28;80.29
7333;BME280;3707;43.618;25.342;2022-09-20T07:35:49;100243.47;;;16.32;80.03
7333;BME280;3707;43.618;25.342;2022-09-20T07:38:17;100263.38;;;16.64;78.78
7333;BME280;3707;43.618;25.342;2022-09-20T07:40:45;100252.16;;;16.41;75.69
7333;BME280;3707;43.618;25.342;2022-09-20T07:43:11;100234.69;;;16.43;76.67
7333;BME280;3707;43.618;25.342;2022-09-20T07:45:38;100245.97;;;16.58;75.98
7333;BME280;3707;43.618;25.342;2022-09-20T07:48:06;100270.31;;;16.71;75.55
7333;BME280;3707;43.618;25.342;2022-09-20T07:50:33;100254.56;;;16.80;75.83
7333;BME280;3707;43.618;25.342;2022-09-20T07:53:00;100253.38;;;17.14;72.84
7333;BME280;3707;43.618;25.342;2022-09-20T07:55:28;100258.69;;;17.08;70.97
7333;BME280;3707;43.618;25.342;2022-09-20T07:57:56;100253.28;;;17.26;71.00
7333;BME280;3707;43.618;25.342;2022-09-20T08:00:23;100254.22;;;17.18;72.23
7333;BME280;3707;43.618;25.342;2022-09-20T08:02:57;100258.75;;;16.99;72.82
7333;BME280;3707;43.618;25.342;2022-09-20T08:05:24;100256.81;;;17.19;73.34
7333;BME280;3707;43.618;25.342;2022-09-20T08:07:51;100256.75;;;17.28;73.55
7333;BME280;3707;43.618;25.342;2022-09-20T08:10:18;100235.88;;;17.16;71.15
7333;BME280;3707;43.618;25.342;2022-09-20T08:12:45;100259.50;;;17.13;70.59
7333;BME280;3707;43.618;25.342;2022-09-20T08:15:13;100259.47;;;17.16;72.86
7333;BME280;3707;43.618;25.342;2022-09-20T08:17:40;100254.13;;;17.30;71.50
7333;BME280;3707;43.618;25.342;2022-09-20T08:20:08;100256.88;;;17.13;70.50
7333;BME280;3707;43.618;25.342;2022-09-20T08:22:35;100264.84;;;17.04;68.51
7333;BME280;3707;43.618;25.342;2022-09-20T08:25:04;100244.63;;;17.18;69.06
7333;BME280;3707;43.618;25.342;2022-09-20T08:27:31;100258.59;;;17.17;65.87
7333;BME280;3707;43.618;25.342;2022-09-20T08:29:58;100250.75;;;17.13;65.86
7333;BME280;3707;43.618;25.342;2022-09-20T08:32:26;100249.53;;;17.49;66.00
7333;BME280;3707;43.618;25.342;2022-09-20T08:34:53;100255.88;;;17.29;64.66
7333;BME280;3707;43.618;25.342;2022-09-20T08:37:20;100248.66;;;17.48;64.31
7333;BME280;3707;43.618;25.342;2022-09-20T08:39:47;100243.50;;;17.44;65.29
7333;BME280;3707;43.618;25.342;2022-09-20T08:42:23;100234.41;;;17.78;65.40
7333;BME280;3707;43.618;25.342;2022-09-20T08:44:56;100243.94;;;17.85;65.30
7333;BME280;3707;43.618;25.342;2022-09-20T08:47:27;100250.91;;;17.86;65.86
7333;BME280;3707;43.618;25.342;2022-09-20T08:49:57;100241.91;;;18.05;64.36
7333;BME280;3707;43.618;25.342;2022-09-20T08:52:28;100241.63;;;18.29;63.36
7333;BME280;3707;43.618;25.342;2022-09-20T08:55:00;100243.53;;;18.17;62.83
7333;BME280;3707;43.618;25.342;2022-09-20T08:57:30;100231.59;;;17.93;63.35
7333;BME280;3707;43.618;25.342;2022-09-20T08:59:58;100239.22;;;18.11;64.69
7333;BME280;3707;43.618;25.342;2022-09-20T09:02:29;100221.69;;;18.13;61.25
7333;BME280;3707;43.618;25.342;2022-09-20T09:04:56;100227.81;;;18.15;62.47
7333;BME280;3707;43.618;25.342;2022-09-20T09:07:24;100213.47;;;18.38;61.49
7333;BME280;3707;43.618;25.342;2022-09-20T09:09:54;100220.56;;;18.31;60.09
7333;BME280;3707;43.618;25.342;2022-09-20T09:12:24;100225.28;;;18.08;59.89
7333;BME280;3707;43.618;25.342;2022-09-20T09:14:51;100219.75;;;18.27;59.64
7333;BME280;3707;43.618;25.342;2022-09-20T09:17:21;100209.97;;;18.39;60.52
7333;BME280;3707;43.618;25.342;2022-09-20T09:19:52;100216.78;;;18.55;60.59
7333;BME280;3707;43.618;25.342;2022-09-20T09:22:23;100197.03;;;18.25;61.95
7333;BME280;3707;43.618;25.342;2022-09-20T09:25:21;100216.78;;;18.55;60.53
7333;BME280;3707;43.618;25.342;2022-09-20T09:27:54;100207.59;;;18.80;60.54
7333;BME280;3707;43.618;25.342;2022-09-20T09:30:23;100189.47;;;19.15;59.43
7333;BME280;3707;43.618;25.342;2022-09-20T09:32:51;100183.75;;;18.92;60.63
7333;BME280;3707;43.618;25.342;2022-09-20T09:35:28;100211.06;;;18.82;60.48
7333;BME280;3707;43.618;25.342;2022-09-20T09:37:58;100193.22;;;18.47;61.15
7333;BME280;3707;43.618;25.342;2022-09-20T09:40:26;100131.69;;;18.08;61.97
7333;BME280;3707;43.618;25.342;2022-09-20T09:42:55;100205.47;;;18.47;61.53
7333;BME280;3707;43.618;25.342;2022-09-20T09:45:29;100188.47;;;18.72;61.08
7333;BME280;3707;43.618;25.342;2022-09-20T09:47:58;100181.78;;;18.53;61.86
7333;BME280;3707;43.618;25.342;2022-09-20T09:50:28;100189.69;;;18.51;61.93
7333;BME280;3707;43.618;25.342;2022-09-20T09:52:57;100185.28;;;18.52;62.50
7333;BME280;3707;43.618;25.342;2022-09-20T09:55:33;100184.72;;;18.87;61.27
7333;BME280;3707;43.618;25.342;2022-09-20T09:58:06;100190.16;;;18.76;60.41
7333;BME280;3707;43.618;25.342;2022-09-20T10:00:37;100192.44;;;18.94;60.63
7333;BME280;3707;43.618;25.342;2022-09-20T10:03:27;100162.91;;;18.81;59.67
7333;BME280;3707;43.618;25.342;2022-09-20T10:06:06;100190.94;;;18.83;59.47
7333;BME280;3707;43.618;25.342;2022-09-20T10:08:45;100183.28;;;18.69;58.95
7333;BME280;3707;43.618;25.342;2022-09-20T10:11:23;100189.25;;;18.78;59.45
7333;BME280;3707;43.618;25.342;2022-09-20T10:14:05;100179.53;;;18.82;59.22
7333;BME280;3707;43.618;25.342;2022-09-20T10:16:49;100158.47;;;18.83;58.63
7333;BME280;3707;43.618;25.342;2022-09-20T10:19:27;100185.09;;;19.14;58.66
7333;BME280;3707;43.618;25.342;2022-09-20T10:22:04;100175.28;;;19.24;58.34
7333;BME280;3707;43.618;25.342;2022-09-20T10:24:42;100170.00;;;19.25;58.63
7333;BME280;3707;43.618;25.342;2022-09-20T10:27:29;100184.72;;;19.36;57.73
7333;BME280;3707;43.618;25.342;2022-09-20T10:30:06;100184.59;;;19.43;57.67
7333;BME280;3707;43.618;25.342;2022-09-20T10:32:45;100185.53;;;19.38;55.28
7333;BME280;3707;43.618;25.342;2022-09-20T10:35:25;100181.19;;;19.37;55.08
7333;BME280;3707;43.618;25.342;2022-09-20T10:38:11;100181.53;;;19.64;55.36
7333;BME280;3707;43.618;25.342;2022-09-20T10:40:46;100154.72;;;19.46;55.68
7333;BME280;3707;43.618;25.342;2022-09-20T10:43:45;100172.91;;;19.58;54.37
7333;BME280;3707;43.618;25.342;2022-09-20T10:46:20;100164.53;;;19.80;54.43
7333;BME280;3707;43.618;25.342;2022-09-20T10:48:57;100152.53;;;20.07;53.69
7333;BME280;3707;43.618;25.342;2022-09-20T10:51:37;100153.03;;;19.86;55.11
7333;BME280;3707;43.618;25.342;2022-09-20T10:54:18;100154.88;;;19.81;54.44
7333;BME280;3707;43.618;25.342;2022-09-20T10:57:03;100145.19;;;19.83;53.88
7333;BME280;3707;43.618;25.342;2022-09-20T10:59:43;100140.00;;;20.18;52.05
7333;BME280;3707;43.618;25.342;2022-09-20T11:02:27;100137.63;;;20.45;51.28
7333;BME280;3707;43.618;25.342;2022-09-20T11:05:27;100135.00;;;20.45;50.20
7333;BME280;3707;43.618;25.342;2022-09-20T11:08:05;100095.00;;;20.64;50.05
7333;BME280;3707;43.618;25.342;2022-09-20T11:10:39;100142.81;;;20.48;50.93
7333;BME280;3707;43.618;25.342;2022-09-20T11:13:15;100140.94;;;20.53;49.92
7333;BME280;3707;43.618;25.342;2022-09-20T11:15:47;100107.31;;;20.64;49.49
7333;BME280;3707;43.618;25.342;2022-09-20T11:18:18;100126.97;;;20.85;49.27
7333;BME280;3707;43.618;25.342;2022-09-20T11:20:54;100130.72;;;21.08;49.26
7333;BME280;3707;43.618;25.342;2022-09-20T11:23:27;100121.38;;;20.63;50.73
7333;BME280;3707;43.618;25.342;2022-09-20T11:26:06;100103.44;;;20.77;49.96
7333;BME280;3707;43.618;25.342;2022-09-20T11:28:38;100114.59;;;21.20;49.39
7333;BME280;3707;43.618;25.342;2022-09-20T11:31:09;100123.16;;;21.59;47.09
7333;BME280;3707;43.618;25.342;2022-09-20T11:33:41;100124.88;;;21.60;47.49
7333;BME280;3707;43.618;25.342;2022-09-20T11:36:15;100103.03;;;20.92;48.22
7333;BME280;3707;43.618;25.342;2022-09-20T11:38:47;100104.31;;;20.77;48.77
7333;BME280;3707;43.618;25.342;2022-09-20T11:41:19;100116.56;;;21.12;49.22
7333;BME280;3707;43.618;25.342;2022-09-20T11:43:48;100111.28;;;21.12;49.60
7333;BME280;3707;43.618;25.342;2022-09-20T11:46:20;100108.31;;;20.92;49.57
7333;BME280;3707;43.618;25.342;2022-09-20T11:48:52;100116.09;;;20.63;49.08
7333;BME280;3707;43.618;25.342;2022-09-20T11:51:33;100112.53;;;20.98;49.05
7333;BME280;3707;43.618;25.342;2022-09-20T11:54:26;100107.78;;;21.12;47.22
7333;BME280;3707;43.618;25.342;2022-09-20T11:56:57;100103.69;;;20.68;48.56
7333;BME280;3707;43.618;25.342;2022-09-20T11:59:28;100100.00;;;20.75;47.99
7333;BME280;3707;43.618;25.342;2022-09-20T12:01:56;100108.31;;;20.58;47.60
7333;BME280;3707;43.618;25.342;2022-09-20T12:04:28;100046.47;;;20.02;47.43
7333;BME280;3707;43.618;25.342;2022-09-20T12:06:58;100097.81;;;20.57;47.63
7333;BME280;3707;43.618;25.342;2022-09-20T12:09:29;100103.81;;;20.62;47.95
7333;BME280;3707;43.618;25.342;2022-09-20T12:12:13;100107.00;;;20.41;47.87
7333;BME280;3707;43.618;25.342;2022-09-20T12:14:40;100120.31;;;20.35;46.99
7333;BME280;3707;43.618;25.342;2022-09-20T12:26:38;100101.16;;;20.97;45.86
7333;BME280;3707;43.618;25.342;2022-09-20T12:32:40;100088.97;;;20.93;45.82
7333;BME280;3707;43.618;25.342;2022-09-20T12:38:33;100093.88;;;21.05;46.59
7333;BME280;3707;43.618;25.342;2022-09-20T12:41:08;100102.00;;;20.98;46.81
7333;BME280;3707;43.618;25.342;2022-09-20T12:43:45;100101.94;;;21.01;47.29
7333;BME280;3707;43.618;25.342;2022-09-20T12:46:29;100080.06;;;20.97;47.13
7333;BME280;3707;43.618;25.342;2022-09-20T12:49:29;100098.94;;;21.45;46.34
7333;BME280;3707;43.618;25.342;2022-09-20T12:52:31;100090.16;;;21.45;45.55
7333;BME280;3707;43.618;25.342;2022-09-20T12:55:32;100075.59;;;21.32;46.43
7333;BME280;3707;43.618;25.342;2022-09-20T12:58:04;100112.22;;;21.42;45.32
7333;BME280;3707;43.618;25.342;2022-09-20T13:00:36;100099.38;;;21.30;44.84
7333;BME280;3707;43.618;25.342;2022-09-20T13:06:24;100104.34;;;21.41;44.79
7333;BME280;3707;43.618;25.342;2022-09-20T13:08:54;100097.53;;;21.63;45.30
7333;BME280;3707;43.618;25.342;2022-09-20T13:11:23;100102.31;;;21.50;45.39
7333;BME280;3707;43.618;25.342;2022-09-20T13:13:55;100100.31;;;21.27;45.96
7333;BME280;3707;43.618;25.342;2022-09-20T13:16:27;100098.97;;;21.13;46.85
7333;BME280;3707;43.618;25.342;2022-09-20T13:19:00;100101.28;;;21.25;46.32
7333;BME280;3707;43.618;25.342;2022-09-20T13:21:33;100092.06;;;21.40;46.66
7333;BME280;3707;43.618;25.342;2022-09-20T13:24:02;100075.50;;;21.35;46.20
7333;BME280;3707;43.618;25.342;2022-09-20T13:26:34;100088.78;;;21.32;45.96
7333;BME280;3707;43.618;25.342;2022-09-20T13:29:07;100077.44;;;21.30;46.57
7333;BME280;3707;43.618;25.342;2022-09-20T13:31:35;100089.53;;;21.37;45.59
7333;BME280;3707;43.618;25.342;2022-09-20T13:34:12;100080.25;;;21.53;44.84
7333;BME280;3707;43.618;25.342;2022-09-20T13:36:41;100069.84;;;20.85;45.29
7333;BME280;3707;43.618;25.342;2022-09-20T13:39:18;100072.19;;;20.96;45.17
7333;BME280;3707;43.618;25.342;2022-09-20T13:41:47;100060.09;;;20.87;45.04
7333;BME280;3707;43.618;25.342;2022-09-20T13:44:15;100084.06;;;21.12;45.05
7333;BME280;3707;43.618;25.342;2022-09-20T13:46:44;100085.94;;;21.07;45.61
7333;BME280;3707;43.618;25.342;2022-09-20T13:49:15;100071.00;;;21.07;45.50
7333;BME280;3707;43.618;25.342;2022-09-20T13:51:46;100079.97;;;21.00;45.65
7333;BME280;3707;43.618;25.342;2022-09-20T13:54:24;100085.56;;;20.88;45.65
7333;BME280;3707;43.618;25.342;2022-09-20T13:56:52;100082.13;;;20.86;45.86
7333;BME280;3707;43.618;25.342;2022-09-20T13:59:20;100092.66;;;20.86;45.90
7333;BME280;3707;43.618;25.342;2022-09-20T14:01:50;100091.94;;;21.13;45.79
7333;BME280;3707;43.618;25.342;2022-09-20T14:04:20;100092.38;;;20.97;46.05
7333;BME280;3707;43.618;25.342;2022-09-20T14:06:51;100085.00;;;20.77;46.08
7333;BME280;3707;43.618;25.342;2022-09-20T14:09:24;100080.66;;;20.76;46.35
7333;BME280;3707;43.618;25.342;2022-09-20T14:11:53;100088.50;;;20.77;46.40
7333;BME280;3707;43.618;25.342;2022-09-20T14:14:22;100087.13;;;20.95;46.59
7333;BME280;3707;43.618;25.342;2022-09-20T14:16:50;100087.19;;;20.94;46.43
7333;BME280;3707;43.618;25.342;2022-09-20T14:19:23;100059.28;;;20.53;46.39
7333;BME280;3707;43.618;25.342;2022-09-20T14:21:52;100084.91;;;20.80;46.72
7333;BME280;3707;43.618;25.342;2022-09-20T14:24:24;100081.06;;;20.59;46.04
7333;BME280;3707;43.618;25.342;2022-09-20T14:27:15;100084.63;;;20.91;45.65
7333;BME280;3707;43.618;25.342;2022-09-20T14:29:43;100067.13;;;20.88;45.63